Nearby METAR Reports

 

KCPC - Whiteville, North Carolina, USA
Distance from station: NNE 17mi, 28km
Updated: 08/21/2018 5:50am
Clear
Clear
 Wind from SSW
Wind: SSW 5 mph , 7 km/h
Temperature: 77°F , 25°C
Dew Point: 75°F , 24°C
Humidity: 94%
Barometer: 30.03 inHg , 1016.9 hPa
Clouds: Clear
Visibility: 10 miles , 16 km
2018/08/21 09:50 KCPC 210950Z AUTO 20004KT 10SM CLR 25/24 A3003 RMK AO2 T02480240
KCRE - North Myrtle Bea, South Carolina, USA
Distance from station: SSE 19mi, 31km
Updated: 08/21/2018 5:53am
Mostly cloudy
Mostly cloudy
 Wind from SW
Wind: SW 8 mph , 13 km/h
Temperature: 79°F , 26°C
Dew Point: 79°F , 26°C
Humidity: 100%
Barometer: 30.04 inHg , 1017.3 hPa
Clouds: Mostly cloudy
Visibility: 10 miles , 16 km
Cloud details: Few Clouds 1000 ft
Mostly cloudy 3600 ft
2018/08/21 09:53 KCRE 210953Z AUTO 22007KT 10SM FEW010 BKN036 26/26 A3004 RMK AO1 SLP172 T02610256
 
KHYW - Conway-Horry Cty, South Carolina, USA
Distance from station: SW 22mi, 35km
Updated: 08/21/2018 5:55am
Clear
Clear
 Wind from calm
Wind: Calm
Temperature: 75°F , 24°C
Dew Point: 75°F , 24°C
Humidity: 100%
Barometer: 30.04 inHg , 1017.3 hPa
Clouds: Clear
Visibility: 7 miles , 11 km
2018/08/21 09:55 KHYW 210955Z AUTO 00000KT 7SM CLR 24/24 A3004 RMK AO2
KMAO - Marion, South Carolina, USA
Distance from station: WNW 28mi, 45km
Updated: 08/21/2018 5:55am
Partly cloudy
Partly cloudy
 Wind from SSW
Wind: SSW 3 mph , 6 km/h
Temperature: 75°F , 24°C
Dew Point: 73°F , 23°C
Humidity: 94%
Barometer: 30.03 inHg , 1016.9 hPa
Clouds: Partly cloudy
Visibility: 7 miles , 11 km
Cloud details: Partly cloudy 5000 ft
Partly cloudy 7000 ft
2018/08/21 09:55 KMAO 210955Z AUTO 21003KT 7SM SCT050 SCT070 24/23 A3003 RMK AO2
 
KMYR - Myrtle Beach, South Carolina, USA
Distance from station: S 28mi, 45km
Updated: 08/21/2018 5:56am
Mostly cloudy
Mostly cloudy
 Wind from SSW
Wind: SSW 5 mph , 7 km/h
Temperature: 79°F , 26°C
Dew Point: 75°F , 24°C
Humidity: 89%
Barometer: 30.05 inHg , 1017.6 hPa
Clouds: Mostly cloudy
Visibility: 10 miles , 16 km
Cloud details: Few Clouds 1600 ft
Mostly cloudy 3500 ft
2018/08/21 09:56 KMYR 210956Z 21004KT 10SM FEW016 BKN035 26/24 A3005 RMK AO2 SLP177 T02610244
KLBT - Lumberton, North Carolina, USA
Distance from station: NNW 39mi, 62km
Updated: 08/21/2018 5:54am
Clear
Clear
 Wind from SSW
Wind: SSW 5 mph , 7 km/h
Temperature: 75°F , 24°C
Dew Point: 73°F , 23°C
Humidity: 94%
Barometer: 30.02 inHg , 1016.6 hPa
Clouds: Clear
Visibility: 7 miles , 11 km
2018/08/21 09:54 KLBT 210954Z AUTO 20004KT 7SM CLR 24/23 A3002 RMK AO2 SLP163 T02440233
 
KSUT - Southport, North Carolina, USA
Distance from station: E 46mi, 74km
Updated: 08/21/2018 6:00am
Mostly cloudy
Mostly cloudy
 Wind from SW
Wind: SW 8 mph , 13 km/h
Temperature: 79°F , 26°C
Dew Point: 77°F , 25°C
Humidity: 94%
Barometer: 30.04 inHg , 1017.3 hPa
Clouds: Mostly cloudy
Visibility: 10 miles , 16 km
Cloud details: Mostly cloudy 900 ft
Mostly cloudy 1300 ft
2018/08/21 10:00 KSUT 211000Z AUTO 22007KT 10SM BKN009 BKN013 26/25 A3004 RMK AO2 T02630252
KFLO - Florence, South Carolina, USA
Distance from station: W 50mi, 81km
Updated: 08/21/2018 5:53am
Partly cloudy
Partly cloudy
 Wind from WSW
Wind: WSW 8 mph , 13 km/h
Temperature: 79°F , 26°C
Dew Point: 75°F , 24°C
Humidity: 89%
Barometer: 30.03 inHg , 1016.9 hPa
Clouds: Partly cloudy
Visibility: 10 miles , 16 km
Cloud details: Partly cloudy 5500 ft
Partly cloudy 7000 ft
2018/08/21 09:53 KFLO 210953Z AUTO 24007KT 10SM SCT055 SCT070 26/24 A3003 RMK AO2 SLP164 T02560239